sensor_id;sensor_type;location;lat;lon;timestamp;temperature;humidity
7934;DHT22;4012;48.896;9.192;2023-02-23T00:00:47;9.80;99.90
7934;DHT22;4012;48.896;9.192;2023-02-23T00:03:13;9.80;99.90
7934;DHT22;4012;48.896;9.192;2023-02-23T00:05:38;9.80;99.90
7934;DHT22;4012;48.896;9.192;2023-02-23T00:08:04;9.80;99.90
7934;DHT22;4012;48.896;9.192;2023-02-23T00:10:30;9.80;99.90
7934;DHT22;4012;48.896;9.192;2023-02-23T00:12:59;9.80;99.90
7934;DHT22;4012;48.896;9.192;2023-02-23T00:15:26;9.80;99.90
7934;DHT22;4012;48.896;9.192;2023-02-23T00:17:53;9.80;99.90
7934;DHT22;4012;48.896;9.192;2023-02-23T00:20:20;9.80;99.90
7934;DHT22;4012;48.896;9.192;2023-02-23T00:22:55;9.80;99.90
7934;DHT22;4012;48.896;9.192;2023-02-23T00:25:21;9.80;99.90
7934;DHT22;4012;48.896;9.192;2023-02-23T00:27:46;9.80;99.90
7934;DHT22;4012;48.896;9.192;2023-02-23T00:30:14;9.90;99.90
7934;DHT22;4012;48.896;9.192;2023-02-23T00:32:40;9.90;99.90
7934;DHT22;4012;48.896;9.192;2023-02-23T00:35:06;9.90;99.90
7934;DHT22;4012;48.896;9.192;2023-02-23T00:37:45;9.90;99.90
7934;DHT22;4012;48.896;9.192;2023-02-23T00:40:12;9.90;99.90
7934;DHT22;4012;48.896;9.192;2023-02-23T00:42:44;9.90;99.90
7934;DHT22;4012;48.896;9.192;2023-02-23T00:45:11;9.90;99.90
7934;DHT22;4012;48.896;9.192;2023-02-23T00:47:39;9.90;99.90
7934;DHT22;4012;48.896;9.192;2023-02-23T00:50:08;9.90;99.90
7934;DHT22;4012;48.896;9.192;2023-02-23T00:52:37;10.00;99.90
7934;DHT22;4012;48.896;9.192;2023-02-23T00:55:04;10.00;99.90
7934;DHT22;4012;48.896;9.192;2023-02-23T00:57:30;9.90;99.90
7934;DHT22;4012;48.896;9.192;2023-02-23T00:59:56;9.90;99.90
7934;DHT22;4012;48.896;9.192;2023-02-23T01:02:21;9.80;99.90
7934;DHT22;4012;48.896;9.192;2023-02-23T01:04:47;9.70;99.90
7934;DHT22;4012;48.896;9.192;2023-02-23T01:07:12;9.70;99.90
7934;DHT22;4012;48.896;9.192;2023-02-23T01:09:38;9.60;99.90
7934;DHT22;4012;48.896;9.192;2023-02-23T01:12:04;9.50;99.90
7934;DHT22;4012;48.896;9.192;2023-02-23T01:14:31;9.50;99.90
7934;DHT22;4012;48.896;9.192;2023-02-23T01:16:57;9.50;99.90
7934;DHT22;4012;48.896;9.192;2023-02-23T01:19:23;9.50;99.90
7934;DHT22;4012;48.896;9.192;2023-02-23T01:21:48;9.50;99.90
7934;DHT22;4012;48.896;9.192;2023-02-23T01:24:14;9.50;99.90
7934;DHT22;4012;48.896;9.192;2023-02-23T01:26:43;9.40;99.90
7934;DHT22;4012;48.896;9.192;2023-02-23T01:29:14;9.40;99.90
7934;DHT22;4012;48.896;9.192;2023-02-23T01:31:46;9.40;99.90
7934;DHT22;4012;48.896;9.192;2023-02-23T01:34:13;9.30;99.90
7934;DHT22;4012;48.896;9.192;2023-02-23T01:36:41;9.30;99.90
7934;DHT22;4012;48.896;9.192;2023-02-23T01:39:13;9.30;99.90
7934;DHT22;4012;48.896;9.192;2023-02-23T01:41:39;9.30;99.90
7934;DHT22;4012;48.896;9.192;2023-02-23T01:46:40;9.30;99.90
7934;DHT22;4012;48.896;9.192;2023-02-23T01:49:11;9.30;99.90
7934;DHT22;4012;48.896;9.192;2023-02-23T01:51:45;9.30;99.90
7934;DHT22;4012;48.896;9.192;2023-02-23T01:54:20;9.30;99.90
7934;DHT22;4012;48.896;9.192;2023-02-23T01:56:50;9.30;99.90
7934;DHT22;4012;48.896;9.192;2023-02-23T01:59:24;9.30;99.90
7934;DHT22;4012;48.896;9.192;2023-02-23T02:01:53;9.30;99.90
7934;DHT22;4012;48.896;9.192;2023-02-23T02:04:20;9.30;99.90
7934;DHT22;4012;48.896;9.192;2023-02-23T02:06:48;9.30;99.90
7934;DHT22;4012;48.896;9.192;2023-02-23T02:09:19;9.30;99.90
7934;DHT22;4012;48.896;9.192;2023-02-23T02:11:50;9.30;99.90
7934;DHT22;4012;48.896;9.192;2023-02-23T02:22:33;9.30;99.90
7934;DHT22;4012;48.896;9.192;2023-02-23T02:39:50;9.30;99.90
7934;DHT22;4012;48.896;9.192;2023-02-23T02:45:11;9.40;99.90
7934;DHT22;4012;48.896;9.192;2023-02-23T02:50:10;9.50;99.90
7934;DHT22;4012;48.896;9.192;2023-02-23T02:52:41;9.50;99.90
7934;DHT22;4012;48.896;9.192;2023-02-23T02:55:15;9.50;99.90
7934;DHT22;4012;48.896;9.192;2023-02-23T02:57:44;9.40;99.90
7934;DHT22;4012;48.896;9.192;2023-02-23T03:00:24;9.40;99.90
7934;DHT22;4012;48.896;9.192;2023-02-23T03:06:33;9.30;99.90
7934;DHT22;4012;48.896;9.192;2023-02-23T03:09:45;9.20;99.90
7934;DHT22;4012;48.896;9.192;2023-02-23T03:19:13;9.30;99.90
7934;DHT22;4012;48.896;9.192;2023-02-23T03:22:12;9.40;99.90
7934;DHT22;4012;48.896;9.192;2023-02-23T03:25:05;9.40;99.90
7934;DHT22;4012;48.896;9.192;2023-02-23T03:31:14;9.30;99.90
7934;DHT22;4012;48.896;9.192;2023-02-23T03:34:21;9.20;99.90
7934;DHT22;4012;48.896;9.192;2023-02-23T03:37:58;9.20;99.90
7934;DHT22;4012;48.896;9.192;2023-02-23T03:40:28;9.20;99.90
7934;DHT22;4012;48.896;9.192;2023-02-23T03:43:19;9.20;99.90
7934;DHT22;4012;48.896;9.192;2023-02-23T03:46:08;9.20;99.90
7934;DHT22;4012;48.896;9.192;2023-02-23T03:48:55;9.20;99.90
7934;DHT22;4012;48.896;9.192;2023-02-23T03:51:42;9.20;99.90
7934;DHT22;4012;48.896;9.192;2023-02-23T03:54:34;9.30;99.90
7934;DHT22;4012;48.896;9.192;2023-02-23T03:57:20;9.40;99.90
7934;DHT22;4012;48.896;9.192;2023-02-23T04:00:10;9.30;99.90
7934;DHT22;4012;48.896;9.192;2023-02-23T04:02:57;9.30;99.90
7934;DHT22;4012;48.896;9.192;2023-02-23T04:05:44;9.30;99.90
7934;DHT22;4012;48.896;9.192;2023-02-23T04:08:33;9.40;99.90
7934;DHT22;4012;48.896;9.192;2023-02-23T04:11:30;9.40;99.90
7934;DHT22;4012;48.896;9.192;2023-02-23T04:14:30;9.40;99.90
7934;DHT22;4012;48.896;9.192;2023-02-23T04:16:58;9.50;99.90
7934;DHT22;4012;48.896;9.192;2023-02-23T04:19:27;9.50;99.90
7934;DHT22;4012;48.896;9.192;2023-02-23T04:21:53;9.50;99.90
7934;DHT22;4012;48.896;9.192;2023-02-23T04:24:18;9.50;99.90
7934;DHT22;4012;48.896;9.192;2023-02-23T04:26:44;9.40;99.90
7934;DHT22;4012;48.896;9.192;2023-02-23T04:29:11;9.40;99.90
7934;DHT22;4012;48.896;9.192;2023-02-23T04:31:37;9.40;99.90
7934;DHT22;4012;48.896;9.192;2023-02-23T04:34:03;9.40;99.90
7934;DHT22;4012;48.896;9.192;2023-02-23T04:36:29;9.40;99.90
7934;DHT22;4012;48.896;9.192;2023-02-23T04:38:55;9.40;99.90
7934;DHT22;4012;48.896;9.192;2023-02-23T04:41:21;9.40;99.90
7934;DHT22;4012;48.896;9.192;2023-02-23T04:43:46;9.40;99.90
7934;DHT22;4012;48.896;9.192;2023-02-23T04:46:12;9.30;99.90
7934;DHT22;4012;48.896;9.192;2023-02-23T04:48:37;9.40;99.90
7934;DHT22;4012;48.896;9.192;2023-02-23T04:51:03;9.40;99.90
7934;DHT22;4012;48.896;9.192;2023-02-23T04:53:29;9.30;99.90
7934;DHT22;4012;48.896;9.192;2023-02-23T04:55:55;9.30;99.90
7934;DHT22;4012;48.896;9.192;2023-02-23T04:58:20;9.40;99.90
7934;DHT22;4012;48.896;9.192;2023-02-23T05:00:46;9.40;99.90
7934;DHT22;4012;48.896;9.192;2023-02-23T05:03:11;9.30;99.90
7934;DHT22;4012;48.896;9.192;2023-02-23T05:05:37;9.40;99.90
7934;DHT22;4012;48.896;9.192;2023-02-23T05:08:04;9.30;99.90
7934;DHT22;4012;48.896;9.192;2023-02-23T05:10:30;9.30;99.90
7934;DHT22;4012;48.896;9.192;2023-02-23T05:12:57;9.30;99.90
7934;DHT22;4012;48.896;9.192;2023-02-23T05:15:22;9.30;99.90
7934;DHT22;4012;48.896;9.192;2023-02-23T05:17:48;9.30;99.90
7934;DHT22;4012;48.896;9.192;2023-02-23T05:20:13;9.20;99.90
7934;DHT22;4012;48.896;9.192;2023-02-23T05:22:40;9.20;99.90
7934;DHT22;4012;48.896;9.192;2023-02-23T05:25:06;9.30;99.90
7934;DHT22;4012;48.896;9.192;2023-02-23T05:27:33;9.30;99.90
7934;DHT22;4012;48.896;9.192;2023-02-23T05:29:59;9.20;99.90
7934;DHT22;4012;48.896;9.192;2023-02-23T05:32:25;9.10;99.90
7934;DHT22;4012;48.896;9.192;2023-02-23T05:34:51;9.10;99.90
7934;DHT22;4012;48.896;9.192;2023-02-23T05:37:17;9.10;99.90
7934;DHT22;4012;48.896;9.192;2023-02-23T05:39:43;9.10;99.90
7934;DHT22;4012;48.896;9.192;2023-02-23T05:42:10;9.10;99.90
7934;DHT22;4012;48.896;9.192;2023-02-23T05:44:35;9.00;99.90
7934;DHT22;4012;48.896;9.192;2023-02-23T05:47:01;9.00;99.90
7934;DHT22;4012;48.896;9.192;2023-02-23T05:49:27;9.10;99.90
7934;DHT22;4012;48.896;9.192;2023-02-23T05:51:53;9.00;99.90
7934;DHT22;4012;48.896;9.192;2023-02-23T05:54:18;9.00;99.90
7934;DHT22;4012;48.896;9.192;2023-02-23T05:57:06;9.00;99.90
7934;DHT22;4012;48.896;9.192;2023-02-23T05:59:32;9.00;99.90
7934;DHT22;4012;48.896;9.192;2023-02-23T06:01:58;9.00;99.90
7934;DHT22;4012;48.896;9.192;2023-02-23T06:04:23;9.00;99.90
7934;DHT22;4012;48.896;9.192;2023-02-23T06:06:49;8.90;99.90
7934;DHT22;4012;48.896;9.192;2023-02-23T06:09:15;8.90;99.90
7934;DHT22;4012;48.896;9.192;2023-02-23T06:11:40;8.90;99.90
7934;DHT22;4012;48.896;9.192;2023-02-23T06:14:06;8.90;99.90
7934;DHT22;4012;48.896;9.192;2023-02-23T06:16:31;8.90;99.90
7934;DHT22;4012;48.896;9.192;2023-02-23T06:18:57;8.90;99.90
7934;DHT22;4012;48.896;9.192;2023-02-23T06:21:22;8.90;99.90
7934;DHT22;4012;48.896;9.192;2023-02-23T06:23:49;8.90;99.90
7934;DHT22;4012;48.896;9.192;2023-02-23T06:26:15;8.90;99.90
7934;DHT22;4012;48.896;9.192;2023-02-23T06:28:40;8.90;99.90
7934;DHT22;4012;48.896;9.192;2023-02-23T06:31:06;8.90;99.90
7934;DHT22;4012;48.896;9.192;2023-02-23T06:33:32;9.00;99.90
7934;DHT22;4012;48.896;9.192;2023-02-23T06:35:58;8.90;99.90
7934;DHT22;4012;48.896;9.192;2023-02-23T06:38:23;8.90;99.90
7934;DHT22;4012;48.896;9.192;2023-02-23T06:40:49;9.00;99.90
7934;DHT22;4012;48.896;9.192;2023-02-23T06:43:15;9.00;99.90
7934;DHT22;4012;48.896;9.192;2023-02-23T06:45:40;9.00;99.90
7934;DHT22;4012;48.896;9.192;2023-02-23T06:48:06;9.00;99.90
7934;DHT22;4012;48.896;9.192;2023-02-23T06:50:32;9.00;99.90
7934;DHT22;4012;48.896;9.192;2023-02-23T06:52:58;9.00;99.90
7934;DHT22;4012;48.896;9.192;2023-02-23T06:55:23;9.00;99.90
7934;DHT22;4012;48.896;9.192;2023-02-23T06:57:49;8.90;99.90
7934;DHT22;4012;48.896;9.192;2023-02-23T07:00:16;9.00;99.90
7934;DHT22;4012;48.896;9.192;2023-02-23T07:02:43;9.00;99.90
7934;DHT22;4012;48.896;9.192;2023-02-23T07:05:09;9.00;99.90
7934;DHT22;4012;48.896;9.192;2023-02-23T07:07:36;9.00;99.90
7934;DHT22;4012;48.896;9.192;2023-02-23T07:10:03;9.00;99.90
7934;DHT22;4012;48.896;9.192;2023-02-23T07:12:30;9.00;99.90
7934;DHT22;4012;48.896;9.192;2023-02-23T07:14:56;9.10;99.90
7934;DHT22;4012;48.896;9.192;2023-02-23T07:17:22;9.10;99.90
7934;DHT22;4012;48.896;9.192;2023-02-23T07:19:47;9.10;99.90
7934;DHT22;4012;48.896;9.192;2023-02-23T07:22:13;9.10;99.90
7934;DHT22;4012;48.896;9.192;2023-02-23T07:24:38;9.10;99.90
7934;DHT22;4012;48.896;9.192;2023-02-23T07:27:04;9.10;99.90
7934;DHT22;4012;48.896;9.192;2023-02-23T07:29:29;9.20;99.90
7934;DHT22;4012;48.896;9.192;2023-02-23T07:31:55;9.20;99.90
7934;DHT22;4012;48.896;9.192;2023-02-23T07:34:21;9.20;99.90
7934;DHT22;4012;48.896;9.192;2023-02-23T07:36:46;9.30;99.90
7934;DHT22;4012;48.896;9.192;2023-02-23T07:39:12;9.40;99.90
7934;DHT22;4012;48.896;9.192;2023-02-23T07:41:38;9.40;99.90
7934;DHT22;4012;48.896;9.192;2023-02-23T07:44:03;9.50;99.90
7934;DHT22;4012;48.896;9.192;2023-02-23T07:46:29;9.60;99.90
7934;DHT22;4012;48.896;9.192;2023-02-23T07:48:58;9.60;99.90
7934;DHT22;4012;48.896;9.192;2023-02-23T07:51:23;9.70;99.90
7934;DHT22;4012;48.896;9.192;2023-02-23T07:53:49;9.70;99.90
7934;DHT22;4012;48.896;9.192;2023-02-23T07:56:15;9.90;99.90
7934;DHT22;4012;48.896;9.192;2023-02-23T07:58:42;9.90;99.90
7934;DHT22;4012;48.896;9.192;2023-02-23T08:01:08;10.00;99.90
7934;DHT22;4012;48.896;9.192;2023-02-23T08:03:34;10.00;99.90
7934;DHT22;4012;48.896;9.192;2023-02-23T08:05:59;10.10;99.90
7934;DHT22;4012;48.896;9.192;2023-02-23T08:08:26;10.20;99.90
7934;DHT22;4012;48.896;9.192;2023-02-23T08:10:59;10.10;99.90
7934;DHT22;4012;48.896;9.192;2023-02-23T08:13:25;10.10;99.90
7934;DHT22;4012;48.896;9.192;2023-02-23T08:15:50;10.20;99.90
7934;DHT22;4012;48.896;9.192;2023-02-23T08:18:16;10.20;99.90
7934;DHT22;4012;48.896;9.192;2023-02-23T08:20:42;10.20;99.90
7934;DHT22;4012;48.896;9.192;2023-02-23T08:23:07;10.20;99.90
7934;DHT22;4012;48.896;9.192;2023-02-23T08:25:34;10.20;99.90
7934;DHT22;4012;48.896;9.192;2023-02-23T08:28:00;10.20;99.90
7934;DHT22;4012;48.896;9.192;2023-02-23T08:30:29;10.20;99.90
7934;DHT22;4012;48.896;9.192;2023-02-23T08:32:56;10.20;99.90
7934;DHT22;4012;48.896;9.192;2023-02-23T08:35:21;10.30;99.90
7934;DHT22;4012;48.896;9.192;2023-02-23T08:37:47;10.40;99.90
7934;DHT22;4012;48.896;9.192;2023-02-23T08:40:13;10.30;99.90
7934;DHT22;4012;48.896;9.192;2023-02-23T08:42:40;10.40;99.90
7934;DHT22;4012;48.896;9.192;2023-02-23T08:45:06;10.30;99.90
7934;DHT22;4012;48.896;9.192;2023-02-23T08:47:32;10.40;99.90
7934;DHT22;4012;48.896;9.192;2023-02-23T08:49:58;10.50;99.90
7934;DHT22;4012;48.896;9.192;2023-02-23T08:52:24;10.50;99.90
7934;DHT22;4012;48.896;9.192;2023-02-23T08:54:50;10.50;99.90
7934;DHT22;4012;48.896;9.192;2023-02-23T08:57:15;10.60;99.90
7934;DHT22;4012;48.896;9.192;2023-02-23T08:59:42;10.70;99.90
7934;DHT22;4012;48.896;9.192;2023-02-23T09:02:11;10.80;99.90
7934;DHT22;4012;48.896;9.192;2023-02-23T09:04:38;10.70;99.90
7934;DHT22;4012;48.896;9.192;2023-02-23T09:07:06;10.80;99.90
7934;DHT22;4012;48.896;9.192;2023-02-23T09:09:32;10.90;99.90
7934;DHT22;4012;48.896;9.192;2023-02-23T09:11:58;10.90;99.90
7934;DHT22;4012;48.896;9.192;2023-02-23T09:14:24;11.10;99.90
7934;DHT22;4012;48.896;9.192;2023-02-23T09:16:50;11.20;99.90
7934;DHT22;4012;48.896;9.192;2023-02-23T09:19:16;11.30;99.90
7934;DHT22;4012;48.896;9.192;2023-02-23T09:21:43;11.30;99.90
7934;DHT22;4012;48.896;9.192;2023-02-23T09:24:08;11.20;99.90
7934;DHT22;4012;48.896;9.192;2023-02-23T09:26:34;11.40;99.90
7934;DHT22;4012;48.896;9.192;2023-02-23T09:29:00;11.60;99.90
7934;DHT22;4012;48.896;9.192;2023-02-23T09:31:26;11.70;99.90
7934;DHT22;4012;48.896;9.192;2023-02-23T09:33:53;11.90;99.90
7934;DHT22;4012;48.896;9.192;2023-02-23T09:36:22;12.10;99.90
7934;DHT22;4012;48.896;9.192;2023-02-23T09:38:50;12.30;99.90
7934;DHT22;4012;48.896;9.192;2023-02-23T09:44:17;12.00;99.90
7934;DHT22;4012;48.896;9.192;2023-02-23T09:49:34;12.80;99.90
7934;DHT22;4012;48.896;9.192;2023-02-23T09:52:02;13.20;99.90
7934;DHT22;4012;48.896;9.192;2023-02-23T09:54:33;13.60;99.90
7934;DHT22;4012;48.896;9.192;2023-02-23T09:57:02;14.10;99.90
7934;DHT22;4012;48.896;9.192;2023-02-23T09:59:29;14.80;99.90
7934;DHT22;4012;48.896;9.192;2023-02-23T10:05:03;17.80;99.90
7934;DHT22;4012;48.896;9.192;2023-02-23T10:08:05;19.30;99.90
7934;DHT22;4012;48.896;9.192;2023-02-23T10:13:44;20.40;99.90
7934;DHT22;4012;48.896;9.192;2023-02-23T10:22:03;22.20;99.90
7934;DHT22;4012;48.896;9.192;2023-02-23T10:24:36;21.10;99.90
7934;DHT22;4012;48.896;9.192;2023-02-23T10:27:09;19.90;99.90
7934;DHT22;4012;48.896;9.192;2023-02-23T10:29:48;20.80;99.90
7934;DHT22;4012;48.896;9.192;2023-02-23T10:32:20;21.00;99.90
7934;DHT22;4012;48.896;9.192;2023-02-23T10:34:53;20.60;99.90
7934;DHT22;4012;48.896;9.192;2023-02-23T10:37:19;19.50;99.90
7934;DHT22;4012;48.896;9.192;2023-02-23T10:39:45;17.40;99.90
7934;DHT22;4012;48.896;9.192;2023-02-23T10:42:20;17.00;99.90
7934;DHT22;4012;48.896;9.192;2023-02-23T10:44:46;17.30;99.90
7934;DHT22;4012;48.896;9.192;2023-02-23T10:47:21;17.30;99.90
7934;DHT22;4012;48.896;9.192;2023-02-23T10:49:50;17.00;99.90
7934;DHT22;4012;48.896;9.192;2023-02-23T10:52:21;16.80;99.90
7934;DHT22;4012;48.896;9.192;2023-02-23T10:54:50;16.60;99.90
7934;DHT22;4012;48.896;9.192;2023-02-23T10:57:30;16.50;99.90
7934;DHT22;4012;48.896;9.192;2023-02-23T11:02:45;16.00;99.90
7934;DHT22;4012;48.896;9.192;2023-02-23T11:06:03;16.10;99.90
7934;DHT22;4012;48.896;9.192;2023-02-23T11:11:00;16.10;99.90
7934;DHT22;4012;48.896;9.192;2023-02-23T11:13:28;15.90;99.90
7934;DHT22;4012;48.896;9.192;2023-02-23T11:16:14;15.60;99.90
7934;DHT22;4012;48.896;9.192;2023-02-23T11:18:48;15.20;99.90
7934;DHT22;4012;48.896;9.192;2023-02-23T11:21:36;14.40;99.90
7934;DHT22;4012;48.896;9.192;2023-02-23T11:24:23;14.10;99.90
7934;DHT22;4012;48.896;9.192;2023-02-23T11:26:52;13.90;99.90
7934;DHT22;4012;48.896;9.192;2023-02-23T11:31:50;14.10;99.90
7934;DHT22;4012;48.896;9.192;2023-02-23T11:34:22;14.50;99.90
7934;DHT22;4012;48.896;9.192;2023-02-23T11:37:07;14.70;99.90
7934;DHT22;4012;48.896;9.192;2023-02-23T11:39:57;14.80;99.90
7934;DHT22;4012;48.896;9.192;2023-02-23T11:42:27;15.00;99.90
7934;DHT22;4012;48.896;9.192;2023-02-23T11:45:14;15.00;99.90
7934;DHT22;4012;48.896;9.192;2023-02-23T11:47:43;15.00;99.90
7934;DHT22;4012;48.896;9.192;2023-02-23T11:52:48;14.00;99.90
7934;DHT22;4012;48.896;9.192;2023-02-23T11:55:17;14.10;99.90
7934;DHT22;4012;48.896;9.192;2023-02-23T11:57:47;14.10;99.90
7934;DHT22;4012;48.896;9.192;2023-02-23T12:00:27;14.10;99.90
7934;DHT22;4012;48.896;9.192;2023-02-23T12:02:56;14.10;99.90
7934;DHT22;4012;48.896;9.192;2023-02-23T12:05:32;14.00;99.90
7934;DHT22;4012;48.896;9.192;2023-02-23T12:08:16;14.00;99.90
7934;DHT22;4012;48.896;9.192;2023-02-23T12:10:46;14.00;99.90
7934;DHT22;4012;48.896;9.192;2023-02-23T12:13:40;14.10;99.90
7934;DHT22;4012;48.896;9.192;2023-02-23T12:19:31;13.90;99.90
7934;DHT22;4012;48.896;9.192;2023-02-23T12:22:22;13.70;99.90
7934;DHT22;4012;48.896;9.192;2023-02-23T12:24:57;13.80;99.90
7934;DHT22;4012;48.896;9.192;2023-02-23T12:30:20;14.50;99.90
7934;DHT22;4012;48.896;9.192;2023-02-23T12:33:15;14.60;99.90
7934;DHT22;4012;48.896;9.192;2023-02-23T12:36:22;14.50;99.90
7934;DHT22;4012;48.896;9.192;2023-02-23T12:46:50;15.00;99.90
7934;DHT22;4012;48.896;9.192;2023-02-23T12:49:48;14.60;99.90
7934;DHT22;4012;48.896;9.192;2023-02-23T12:52:20;14.70;99.90
7934;DHT22;4012;48.896;9.192;2023-02-23T12:54:47;14.90;99.90
7934;DHT22;4012;48.896;9.192;2023-02-23T12:58:10;14.60;99.90
7934;DHT22;4012;48.896;9.192;2023-02-23T13:08:30;14.20;99.90
7934;DHT22;4012;48.896;9.192;2023-02-23T13:11:05;14.20;99.90
7934;DHT22;4012;48.896;9.192;2023-02-23T13:13:56;14.30;99.90
7934;DHT22;4012;48.896;9.192;2023-02-23T13:16:50;14.20;99.90
7934;DHT22;4012;48.896;9.192;2023-02-23T13:22:16;14.00;99.90
7934;DHT22;4012;48.896;9.192;2023-02-23T13:24:47;14.00;99.90
7934;DHT22;4012;48.896;9.192;2023-02-23T13:29:55;13.90;99.90
7934;DHT22;4012;48.896;9.192;2023-02-23T13:32:25;14.00;99.90
7934;DHT22;4012;48.896;9.192;2023-02-23T13:34:56;14.20;99.90
7934;DHT22;4012;48.896;9.192;2023-02-23T13:37:25;14.20;99.90
7934;DHT22;4012;48.896;9.192;2023-02-23T13:40:08;14.20;99.90
7934;DHT22;4012;48.896;9.192;2023-02-23T13:48:11;13.90;99.90
7934;DHT22;4012;48.896;9.192;2023-02-23T13:51:10;13.90;99.90
7934;DHT22;4012;48.896;9.192;2023-02-23T13:56:23;13.90;99.90
7934;DHT22;4012;48.896;9.192;2023-02-23T13:59:04;14.00;99.90
7934;DHT22;4012;48.896;9.192;2023-02-23T14:01:38;14.10;99.90
7934;DHT22;4012;48.896;9.192;2023-02-23T14:04:14;14.20;99.90
7934;DHT22;4012;48.896;9.192;2023-02-23T14:06:50;14.00;99.90
7934;DHT22;4012;48.896;9.192;2023-02-23T14:09:53;13.90;99.90
7934;DHT22;4012;48.896;9.192;2023-02-23T14:12:43;13.90;99.90
7934;DHT22;4012;48.896;9.192;2023-02-23T14:17:59;14.00;99.90
7934;DHT22;4012;48.896;9.192;2023-02-23T14:20:51;14.10;99.90
7934;DHT22;4012;48.896;9.192;2023-02-23T14:26:09;14.40;99.90
7934;DHT22;4012;48.896;9.192;2023-02-23T14:28:47;14.30;99.90
7934;DHT22;4012;48.896;9.192;2023-02-23T14:31:33;14.20;99.90
7934;DHT22;4012;48.896;9.192;2023-02-23T14:34:06;14.20;99.90
7934;DHT22;4012;48.896;9.192;2023-02-23T14:36:46;14.20;99.90
7934;DHT22;4012;48.896;9.192;2023-02-23T14:39:18;14.20;99.90
7934;DHT22;4012;48.896;9.192;2023-02-23T14:41:49;14.10;99.90
7934;DHT22;4012;48.896;9.192;2023-02-23T14:44:23;14.10;99.90
7934;DHT22;4012;48.896;9.192;2023-02-23T14:49:30;13.80;99.90
7934;DHT22;4012;48.896;9.192;2023-02-23T14:52:03;13.70;99.90
7934;DHT22;4012;48.896;9.192;2023-02-23T14:54:33;13.80;99.90
7934;DHT22;4012;48.896;9.192;2023-02-23T14:57:02;13.60;99.90
7934;DHT22;4012;48.896;9.192;2023-02-23T14:59:38;13.50;99.90
7934;DHT22;4012;48.896;9.192;2023-02-23T15:02:10;13.40;99.90
7934;DHT22;4012;48.896;9.192;2023-02-23T15:04:36;13.30;99.90
7934;DHT22;4012;48.896;9.192;2023-02-23T15:07:03;13.20;99.90
7934;DHT22;4012;48.896;9.192;2023-02-23T15:09:39;13.20;99.90
7934;DHT22;4012;48.896;9.192;2023-02-23T15:12:19;13.20;99.90
7934;DHT22;4012;48.896;9.192;2023-02-23T15:14:48;13.30;99.90
7934;DHT22;4012;48.896;9.192;2023-02-23T15:17:19;13.30;99.90
7934;DHT22;4012;48.896;9.192;2023-02-23T15:19:49;13.50;99.90
7934;DHT22;4012;48.896;9.192;2023-02-23T15:22:38;13.60;99.90
7934;DHT22;4012;48.896;9.192;2023-02-23T15:25:23;13.50;99.90
7934;DHT22;4012;48.896;9.192;2023-02-23T15:27:50;13.50;99.90
7934;DHT22;4012;48.896;9.192;2023-02-23T15:30:24;13.50;99.90
7934;DHT22;4012;48.896;9.192;2023-02-23T15:33:12;13.50;99.90
7934;DHT22;4012;48.896;9.192;2023-02-23T15:35:43;13.40;99.90
7934;DHT22;4012;48.896;9.192;2023-02-23T15:38:17;13.40;99.90
7934;DHT22;4012;48.896;9.192;2023-02-23T15:40:44;13.30;99.90
7934;DHT22;4012;48.896;9.192;2023-02-23T15:43:11;13.10;99.90
7934;DHT22;4012;48.896;9.192;2023-02-23T15:45:48;13.00;99.90
7934;DHT22;4012;48.896;9.192;2023-02-23T15:48:21;12.90;99.90
7934;DHT22;4012;48.896;9.192;2023-02-23T15:50:49;12.90;99.90
7934;DHT22;4012;48.896;9.192;2023-02-23T15:53:28;12.90;99.90
7934;DHT22;4012;48.896;9.192;2023-02-23T15:55:56;12.90;99.90
7934;DHT22;4012;48.896;9.192;2023-02-23T15:58:28;12.80;99.90
7934;DHT22;4012;48.896;9.192;2023-02-23T16:00:57;12.80;99.90
7934;DHT22;4012;48.896;9.192;2023-02-23T16:03:35;12.80;99.90
7934;DHT22;4012;48.896;9.192;2023-02-23T16:06:04;12.70;99.90
7934;DHT22;4012;48.896;9.192;2023-02-23T16:08:31;12.70;99.90
7934;DHT22;4012;48.896;9.192;2023-02-23T16:11:11;12.60;99.90
7934;DHT22;4012;48.896;9.192;2023-02-23T16:13:41;12.40;99.90
7934;DHT22;4012;48.896;9.192;2023-02-23T16:16:08;12.30;99.90
7934;DHT22;4012;48.896;9.192;2023-02-23T16:18:40;12.30;99.90
7934;DHT22;4012;48.896;9.192;2023-02-23T16:21:10;12.30;99.90
7934;DHT22;4012;48.896;9.192;2023-02-23T16:23:44;12.30;99.90
7934;DHT22;4012;48.896;9.192;2023-02-23T16:26:25;12.30;99.90
7934;DHT22;4012;48.896;9.192;2023-02-23T16:28:56;12.20;99.90
7934;DHT22;4012;48.896;9.192;2023-02-23T16:31:38;12.20;99.90
7934;DHT22;4012;48.896;9.192;2023-02-23T16:36:43;12.30;99.90
7934;DHT22;4012;48.896;9.192;2023-02-23T16:39:13;12.30;99.90
7934;DHT22;4012;48.896;9.192;2023-02-23T16:41:42;12.20;99.90
7934;DHT22;4012;48.896;9.192;2023-02-23T16:44:13;12.30;99.90
7934;DHT22;4012;48.896;9.192;2023-02-23T16:49:22;12.10;99.90
7934;DHT22;4012;48.896;9.192;2023-02-23T16:51:51;12.10;99.90
7934;DHT22;4012;48.896;9.192;2023-02-23T16:54:17;12.10;99.90
7934;DHT22;4012;48.896;9.192;2023-02-23T16:56:42;12.10;99.90
7934;DHT22;4012;48.896;9.192;2023-02-23T16:59:11;12.10;99.90
7934;DHT22;4012;48.896;9.192;2023-02-23T17:01:38;12.00;99.90
7934;DHT22;4012;48.896;9.192;2023-02-23T17:04:09;12.00;99.90
7934;DHT22;4012;48.896;9.192;2023-02-23T17:06:36;12.00;99.90
7934;DHT22;4012;48.896;9.192;2023-02-23T17:09:02;12.00;99.90
7934;DHT22;4012;48.896;9.192;2023-02-23T17:11:28;12.00;99.90
7934;DHT22;4012;48.896;9.192;2023-02-23T17:13:53;11.90;99.90
7934;DHT22;4012;48.896;9.192;2023-02-23T17:16:19;12.00;99.90
7934;DHT22;4012;48.896;9.192;2023-02-23T17:18:44;11.90;99.90
7934;DHT22;4012;48.896;9.192;2023-02-23T17:21:12;11.90;99.90
7934;DHT22;4012;48.896;9.192;2023-02-23T17:23:39;11.90;99.90
7934;DHT22;4012;48.896;9.192;2023-02-23T17:26:20;11.80;99.90
7934;DHT22;4012;48.896;9.192;2023-02-23T17:28:46;11.80;99.90
7934;DHT22;4012;48.896;9.192;2023-02-23T17:31:13;11.80;99.90
7934;DHT22;4012;48.896;9.192;2023-02-23T17:33:40;11.80;99.90
7934;DHT22;4012;48.896;9.192;2023-02-23T17:36:09;11.80;99.90
7934;DHT22;4012;48.896;9.192;2023-02-23T17:38:35;11.80;99.90
7934;DHT22;4012;48.896;9.192;2023-02-23T17:41:07;11.80;99.90
7934;DHT22;4012;48.896;9.192;2023-02-23T17:43:34;11.70;99.90
7934;DHT22;4012;48.896;9.192;2023-02-23T17:46:02;11.70;99.90
7934;DHT22;4012;48.896;9.192;2023-02-23T17:48:27;11.70;99.90
7934;DHT22;4012;48.896;9.192;2023-02-23T17:50:56;11.70;99.90
7934;DHT22;4012;48.896;9.192;2023-02-23T17:53:24;11.70;99.90
7934;DHT22;4012;48.896;9.192;2023-02-23T17:55:50;11.70;99.90
7934;DHT22;4012;48.896;9.192;2023-02-23T17:58:16;11.50;99.90
7934;DHT22;4012;48.896;9.192;2023-02-23T18:00:42;11.60;99.90
7934;DHT22;4012;48.896;9.192;2023-02-23T18:03:07;11.40;99.90
7934;DHT22;4012;48.896;9.192;2023-02-23T18:05:33;11.30;99.90
7934;DHT22;4012;48.896;9.192;2023-02-23T18:07:58;11.30;99.90
7934;DHT22;4012;48.896;9.192;2023-02-23T18:10:24;11.30;99.90
7934;DHT22;4012;48.896;9.192;2023-02-23T18:12:51;11.30;99.90
7934;DHT22;4012;48.896;9.192;2023-02-23T18:15:17;11.30;99.90
7934;DHT22;4012;48.896;9.192;2023-02-23T18:17:43;11.30;99.90
7934;DHT22;4012;48.896;9.192;2023-02-23T18:20:09;11.30;99.90
7934;DHT22;4012;48.896;9.192;2023-02-23T18:22:42;11.20;99.90
7934;DHT22;4012;48.896;9.192;2023-02-23T18:25:24;11.20;99.90
7934;DHT22;4012;48.896;9.192;2023-02-23T18:27:50;11.30;99.90
7934;DHT22;4012;48.896;9.192;2023-02-23T18:30:18;11.30;99.90
7934;DHT22;4012;48.896;9.192;2023-02-23T18:32:44;11.30;99.90
7934;DHT22;4012;48.896;9.192;2023-02-23T18:35:13;11.30;99.90
7934;DHT22;4012;48.896;9.192;2023-02-23T18:37:38;11.30;99.90